Terminal Aerodrome Forecast
Issued by NWS Denver/Boulder, CO

Home | Current Version | Previous Version | Text Only | Print | Product List | Glossary On
Versions: 1 2 3 4 5 6 7 8 9 10 11 12 13 14 15 16 17 18 19 20 21 22 23 24 25 26 27 28 29 30 31 32 33 34 35 36 37 38 39 40
000
FTUS45 KBOU 140714 AAB
TAFDEN
TAF AMD
KDEN 140714Z 1407/1512 35011KT 2SM -SN BR BKN015 OVC035
     FM140800 35011KT 5SM -SN BR SCT020 OVC030
      TEMPO 1408/1410 BKN020
     FM141000 34011KT P6SM SCT030 OVC050
     FM141400 30010KT P6SM SCT050 OVC080
     FM141700 28008KT P6SM SCT080 SCT120
     FM142200 23008KT P6SM FEW120 SCT200
     FM150300 20008KT P6SM FEW120 SCT200=

USA.gov is the U.S. government's official web portal to all federal, state and local government web resources and services.